sensor_id;sensor_type;location;lat;lon;timestamp;pressure;altitude;pressure_sealevel;temperature;humidity
50652;BME280;66928;52.086;5.240;2023-04-30T05:23:52;102261.0;;;8.66;82.12
50652;BME280;66928;52.086;5.240;2023-04-30T05:25:28;102258.0;;;8.78;81.8
50652;BME280;66928;52.086;5.240;2023-04-30T05:28:40;102259.0;;;8.76;82.14
50652;BME280;66928;52.086;5.240;2023-04-30T05:30:16;102262.0;;;8.73;82.03
50652;BME280;66928;52.086;5.240;2023-04-30T05:31:52;102263.0;;;8.77;81.99
50652;BME280;66928;52.086;5.240;2023-04-30T05:35:05;102267.0;;;8.91;81.52
50652;BME280;66928;52.086;5.240;2023-04-30T05:36:42;102267.0;;;8.91;81.41
50652;BME280;66928;52.086;5.240;2023-04-30T05:38:18;102268.0;;;9.09;80.91
50652;BME280;66928;52.086;5.240;2023-04-30T05:39:54;102269.0;;;9.09;80.69
50652;BME280;66928;52.086;5.240;2023-04-30T05:43:07;102273.0;;;9.06;80.83
50652;BME280;66928;52.086;5.240;2023-04-30T05:44:43;102272.0;;;8.96;81.08
50652;BME280;66928;52.086;5.240;2023-04-30T05:46:19;102280.0;;;9.19;80.62
50652;BME280;66928;52.086;5.240;2023-04-30T05:49:32;102276.0;;;9.21;80.37
50652;BME280;66928;52.086;5.240;2023-04-30T05:51:08;102282.0;;;9.21;80.55
50652;BME280;66928;52.086;5.240;2023-04-30T05:52:44;102289.0;;;9.31;80.28
50652;BME280;66928;52.086;5.240;2023-04-30T05:55:56;102290.0;;;9.18;80.75
50652;BME280;66928;52.086;5.240;2023-04-30T05:57:33;102294.0;;;9.18;80.77
50652;BME280;66928;52.086;5.240;2023-04-30T05:59:09;102301.0;;;9.41;79.8
50652;BME280;66928;52.086;5.240;2023-04-30T06:00:47;102296.0;;;9.23;80.5
50652;BME280;66928;52.086;5.240;2023-04-30T06:04:00;102293.0;;;9.21;80.75
50652;BME280;66928;52.086;5.240;2023-04-30T06:05:36;102294.0;;;9.4;80.11
50652;BME280;66928;52.086;5.240;2023-04-30T06:07:13;102290.0;;;9.49;80.12
50652;BME280;66928;52.086;5.240;2023-04-30T06:10:25;102294.0;;;9.69;79.36
50652;BME280;66928;52.086;5.240;2023-04-30T06:12:02;102291.0;;;9.5;79.53
50652;BME280;66928;52.086;5.240;2023-04-30T06:13:39;102290.0;;;9.75;78.91
50652;BME280;66928;52.086;5.240;2023-04-30T06:16:52;102294.0;;;9.92;78.62
50652;BME280;66928;52.086;5.240;2023-04-30T06:18:28;102295.0;;;9.94;78.63
50652;BME280;66928;52.086;5.240;2023-04-30T06:20:05;102295.0;;;10.14;77.78
50652;BME280;66928;52.086;5.240;2023-04-30T06:21:42;102292.0;;;10.23;77.36
50652;BME280;66928;52.086;5.240;2023-04-30T06:24:55;102291.0;;;9.97;77.72
50652;BME280;66928;52.086;5.240;2023-04-30T06:26:31;102292.0;;;10.14;77.39
50652;BME280;66928;52.086;5.240;2023-04-30T06:28:08;102291.0;;;10.31;77.06
50652;BME280;66928;52.086;5.240;2023-04-30T06:31:20;102289.0;;;10.15;77.19
50652;BME280;66928;52.086;5.240;2023-04-30T06:32:57;102291.0;;;10.22;77.13
50652;BME280;66928;52.086;5.240;2023-04-30T06:34:33;102293.0;;;10.16;77.37
50652;BME280;66928;52.086;5.240;2023-04-30T06:37:46;102289.0;;;10.29;76.94
50652;BME280;66928;52.086;5.240;2023-04-30T06:39:23;102287.0;;;10.42;76.41
50652;BME280;66928;52.086;5.240;2023-04-30T06:40:59;102292.0;;;10.48;76.19
50652;BME280;66928;52.086;5.240;2023-04-30T06:45:47;102294.0;;;10.46;75.47
50652;BME280;66928;52.086;5.240;2023-04-30T06:47:23;102296.0;;;10.35;75.62
50652;BME280;66928;52.086;5.240;2023-04-30T06:49:00;102301.0;;;10.34;75.75
50652;BME280;66928;52.086;5.240;2023-04-30T06:52:13;102302.0;;;10.3;75.81
50652;BME280;66928;52.086;5.240;2023-04-30T06:53:50;102302.0;;;10.49;75.41
50652;BME280;66928;52.086;5.240;2023-04-30T06:55:26;102301.0;;;10.5;75.3
50652;BME280;66928;52.086;5.240;2023-04-30T06:58:38;102300.0;;;10.61;75.17
50652;BME280;66928;52.086;5.240;2023-04-30T07:00:14;102305.0;;;10.67;74.39
50652;BME280;66928;52.086;5.240;2023-04-30T07:01:51;102307.0;;;10.81;73.92
50652;BME280;66928;52.086;5.240;2023-04-30T07:03:27;102303.0;;;10.9;73.5
50652;BME280;66928;52.086;5.240;2023-04-30T07:06:41;102305.0;;;10.94;73.33
50652;BME280;66928;52.086;5.240;2023-04-30T07:08:17;102309.0;;;10.88;73.19
50652;BME280;66928;52.086;5.240;2023-04-30T07:09:53;102311.0;;;10.65;73.27
50652;BME280;66928;52.086;5.240;2023-04-30T07:13:06;102314.0;;;10.75;73.22
50652;BME280;66928;52.086;5.240;2023-04-30T07:14:42;102309.0;;;11.03;72.58
50652;BME280;66928;52.086;5.240;2023-04-30T07:16:18;102312.0;;;11.02;72.37
50652;BME280;66928;52.086;5.240;2023-04-30T07:19:31;102310.0;;;11.07;72.11
50652;BME280;66928;52.086;5.240;2023-04-30T07:21:07;102312.0;;;11.21;71.91
50652;BME280;66928;52.086;5.240;2023-04-30T07:22:43;102307.0;;;11.34;71.66
50652;BME280;66928;52.086;5.240;2023-04-30T07:25:57;102312.0;;;11.31;71.39
50652;BME280;66928;52.086;5.240;2023-04-30T07:27:33;102311.0;;;11.45;70.88
50652;BME280;66928;52.086;5.240;2023-04-30T07:29:09;102310.0;;;11.31;70.86
50652;BME280;66928;52.086;5.240;2023-04-30T07:30:45;102313.0;;;11.38;70.52
50652;BME280;66928;52.086;5.240;2023-04-30T07:33:58;102307.0;;;11.62;70.62
50652;BME280;66928;52.086;5.240;2023-04-30T07:35:34;102305.0;;;11.62;70.16
50652;BME280;66928;52.086;5.240;2023-04-30T07:37:10;102300.0;;;11.82;69.74
50652;BME280;66928;52.086;5.240;2023-04-30T07:40:23;102305.0;;;11.94;69.38
50652;BME280;66928;52.086;5.240;2023-04-30T07:41:59;102305.0;;;11.72;68.94
50652;BME280;66928;52.086;5.240;2023-04-30T07:43:35;102305.0;;;11.77;69.24
50652;BME280;66928;52.086;5.240;2023-04-30T07:46:48;102296.0;;;11.84;69.94
50652;BME280;66928;52.086;5.240;2023-04-30T07:48:26;102301.0;;;12.0;69.84
50652;BME280;66928;52.086;5.240;2023-04-30T07:50:02;102300.0;;;12.01;68.97
50652;BME280;66928;52.086;5.240;2023-04-30T07:51:39;102294.0;;;12.31;68.44
50652;BME280;66928;52.086;5.240;2023-04-30T07:54:53;102296.0;;;12.23;67.89
50652;BME280;66928;52.086;5.240;2023-04-30T07:56:29;102299.0;;;12.42;67.27
50652;BME280;66928;52.086;5.240;2023-04-30T07:58:06;102297.0;;;12.29;66.94
50652;BME280;66928;52.086;5.240;2023-04-30T08:01:18;102294.0;;;12.38;67.03
50652;BME280;66928;52.086;5.240;2023-04-30T08:02:54;102291.0;;;12.37;67.05
50652;BME280;66928;52.086;5.240;2023-04-30T08:04:30;102293.0;;;12.2;66.99
50652;BME280;66928;52.086;5.240;2023-04-30T08:07:42;102296.0;;;12.19;67.19
50652;BME280;66928;52.086;5.240;2023-04-30T08:09:18;102296.0;;;12.43;66.77
50652;BME280;66928;52.086;5.240;2023-04-30T08:10:55;102295.0;;;12.61;66.44
50652;BME280;66928;52.086;5.240;2023-04-30T08:12:31;102295.0;;;12.75;65.94
50652;BME280;66928;52.086;5.240;2023-04-30T08:15:46;102300.0;;;12.7;66.3
50652;BME280;66928;52.086;5.240;2023-04-30T08:17:22;102298.0;;;12.53;65.97
50652;BME280;66928;52.086;5.240;2023-04-30T08:18:58;102300.0;;;12.73;64.91
50652;BME280;66928;52.086;5.240;2023-04-30T08:22:11;102299.0;;;12.72;64.33
50652;BME280;66928;52.086;5.240;2023-04-30T08:23:47;102300.0;;;12.65;64.8
50652;BME280;66928;52.086;5.240;2023-04-30T08:25:23;102300.0;;;12.88;65.37
50652;BME280;66928;52.086;5.240;2023-04-30T08:28:36;102296.0;;;13.11;64.78
50652;BME280;66928;52.086;5.240;2023-04-30T08:30:12;102298.0;;;12.99;63.46
50652;BME280;66928;52.086;5.240;2023-04-30T08:31:48;102299.0;;;12.83;63.64
50652;BME280;66928;52.086;5.240;2023-04-30T08:33:24;102302.0;;;12.71;64.97
50652;BME280;66928;52.086;5.240;2023-04-30T08:36:37;102302.0;;;12.85;64.8
50652;BME280;66928;52.086;5.240;2023-04-30T08:38:13;102297.0;;;13.05;63.98
50652;BME280;66928;52.086;5.240;2023-04-30T08:39:49;102298.0;;;13.21;63.27
50652;BME280;66928;52.086;5.240;2023-04-30T08:43:06;102294.0;;;13.32;63.05
50652;BME280;66928;52.086;5.240;2023-04-30T08:44:43;102295.0;;;13.15;62.75
50652;BME280;66928;52.086;5.240;2023-04-30T08:46:20;102296.0;;;13.38;61.9
50652;BME280;66928;52.086;5.240;2023-04-30T08:49:35;102294.0;;;13.24;61.59
50652;BME280;66928;52.086;5.240;2023-04-30T08:51:12;102297.0;;;13.28;61.41
50652;BME280;66928;52.086;5.240;2023-04-30T08:52:49;102298.0;;;13.38;61.17
50652;BME280;66928;52.086;5.240;2023-04-30T08:54:27;102301.0;;;13.5;61.91
50652;BME280;66928;52.086;5.240;2023-04-30T08:57:45;102294.0;;;13.39;62.21
50652;BME280;66928;52.086;5.240;2023-04-30T08:59:22;102292.0;;;13.7;62.22
50652;BME280;66928;52.086;5.240;2023-04-30T09:00:58;102294.0;;;13.82;61.97
50652;BME280;66928;52.086;5.240;2023-04-30T09:04:15;102292.0;;;13.93;62.1
50652;BME280;66928;52.086;5.240;2023-04-30T09:05:51;102290.0;;;13.75;61.46
50652;BME280;66928;52.086;5.240;2023-04-30T09:07:30;102287.0;;;13.77;61.51
50652;BME280;66928;52.086;5.240;2023-04-30T09:09:10;102281.0;;;13.81;61.46
50652;BME280;66928;52.086;5.240;2023-04-30T09:12:26;102283.0;;;13.76;60.92
50652;BME280;66928;52.086;5.240;2023-04-30T09:14:02;102280.0;;;14.08;61.24
50652;BME280;66928;52.086;5.240;2023-04-30T09:15:39;102280.0;;;14.19;60.33
50652;BME280;66928;52.086;5.240;2023-04-30T09:18:58;102282.0;;;14.23;60.34
50652;BME280;66928;52.086;5.240;2023-04-30T09:20:35;102280.0;;;14.33;59.97
50652;BME280;66928;52.086;5.240;2023-04-30T09:22:18;102280.0;;;14.34;59.55
50652;BME280;66928;52.086;5.240;2023-04-30T09:23:56;102282.0;;;14.55;59.62
50652;BME280;66928;52.086;5.240;2023-04-30T09:27:16;102275.0;;;14.48;58.25
50652;BME280;66928;52.086;5.240;2023-04-30T09:28:54;102274.0;;;14.55;59.11
50652;BME280;66928;52.086;5.240;2023-04-30T09:30:31;102280.0;;;14.34;58.21
50652;BME280;66928;52.086;5.240;2023-04-30T09:32:08;102277.0;;;14.35;59.04
50652;BME280;66928;52.086;5.240;2023-04-30T09:35:28;102263.0;;;14.57;57.66
50652;BME280;66928;52.086;5.240;2023-04-30T09:37:05;102273.0;;;14.46;57.02
50652;BME280;66928;52.086;5.240;2023-04-30T09:38:42;102269.0;;;14.36;56.75
50652;BME280;66928;52.086;5.240;2023-04-30T09:42:09;102270.0;;;14.44;56.57
50652;BME280;66928;52.086;5.240;2023-04-30T09:45:22;102268.0;;;14.48;56.08
50652;BME280;66928;52.086;5.240;2023-04-30T09:46:58;102267.0;;;14.69;57.05
50652;BME280;66928;52.086;5.240;2023-04-30T09:50:17;102266.0;;;14.83;56.28
50652;BME280;66928;52.086;5.240;2023-04-30T09:51:54;102258.0;;;15.06;56.17
50652;BME280;66928;52.086;5.240;2023-04-30T09:53:32;102256.0;;;15.03;56.69
50652;BME280;66928;52.086;5.240;2023-04-30T09:55:12;102255.0;;;15.11;56.99
50652;BME280;66928;52.086;5.240;2023-04-30T09:58:30;102250.0;;;15.38;56.8
50652;BME280;66928;52.086;5.240;2023-04-30T10:00:12;102250.0;;;15.28;56.12
50652;BME280;66928;52.086;5.240;2023-04-30T10:01:50;102247.0;;;15.38;55.8
50652;BME280;66928;52.086;5.240;2023-04-30T10:03:30;102250.0;;;15.42;55.09
50652;BME280;66928;52.086;5.240;2023-04-30T10:06:43;102244.0;;;15.59;55.76
50652;BME280;66928;52.086;5.240;2023-04-30T10:08:24;102245.0;;;15.62;54.38
50652;BME280;66928;52.086;5.240;2023-04-30T10:10:07;102245.0;;;15.55;54.57
50652;BME280;66928;52.086;5.240;2023-04-30T10:13:23;102234.0;;;15.66;55.07
50652;BME280;66928;52.086;5.240;2023-04-30T10:15:10;102235.0;;;15.64;54.97
50652;BME280;66928;52.086;5.240;2023-04-30T10:16:53;102234.0;;;15.58;55.28
50652;BME280;66928;52.086;5.240;2023-04-30T10:18:33;102236.0;;;15.68;55.2
50652;BME280;66928;52.086;5.240;2023-04-30T10:20:13;102230.0;;;15.73;54.77
50652;BME280;66928;52.086;5.240;2023-04-30T10:23:28;102237.0;;;15.7;54.36
50652;BME280;66928;52.086;5.240;2023-04-30T10:25:05;102232.0;;;15.69;53.93
50652;BME280;66928;52.086;5.240;2023-04-30T10:26:42;102228.0;;;15.6;55.46
50652;BME280;66928;52.086;5.240;2023-04-30T10:29:56;102231.0;;;15.94;54.69
50652;BME280;66928;52.086;5.240;2023-04-30T10:31:34;102227.0;;;15.97;54.54
50652;BME280;66928;52.086;5.240;2023-04-30T10:33:18;102225.0;;;16.2;53.9
50652;BME280;66928;52.086;5.240;2023-04-30T10:35:04;102225.0;;;16.03;53.6
50652;BME280;66928;52.086;5.240;2023-04-30T10:38:26;102230.0;;;16.0;53.88
50652;BME280;66928;52.086;5.240;2023-04-30T10:40:05;102222.0;;;16.09;53.26
50652;BME280;66928;52.086;5.240;2023-04-30T10:41:44;102219.0;;;16.18;53.24
50652;BME280;66928;52.086;5.240;2023-04-30T10:43:23;102219.0;;;16.3;53.48
50652;BME280;66928;52.086;5.240;2023-04-30T10:46:37;102216.0;;;16.3;53.02
50652;BME280;66928;52.086;5.240;2023-04-30T10:48:15;102210.0;;;16.37;52.66
50652;BME280;66928;52.086;5.240;2023-04-30T10:50:01;102205.0;;;16.59;52.12
50652;BME280;66928;52.086;5.240;2023-04-30T10:51:47;102205.0;;;16.73;52.22
50652;BME280;66928;52.086;5.240;2023-04-30T10:55:08;102205.0;;;16.68;52.2
50652;BME280;66928;52.086;5.240;2023-04-30T10:56:45;102201.0;;;16.7;51.7
50652;BME280;66928;52.086;5.240;2023-04-30T10:58:23;102203.0;;;16.68;51.86
50652;BME280;66928;52.086;5.240;2023-04-30T11:00:18;102190.0;;;16.79;51.58
50652;BME280;66928;52.086;5.240;2023-04-30T11:03:34;102198.0;;;16.52;52.4
50652;BME280;66928;52.086;5.240;2023-04-30T11:05:13;102191.0;;;16.52;53.91
50652;BME280;66928;52.086;5.240;2023-04-30T11:07:24;102192.0;;;16.8;52.17
50652;BME280;66928;52.086;5.240;2023-04-30T11:09:02;102190.0;;;16.84;51.18
50652;BME280;66928;52.086;5.240;2023-04-30T11:10:56;102182.0;;;16.5;52.23
50652;BME280;66928;52.086;5.240;2023-04-30T11:12:33;102181.0;;;16.25;52.44
50652;BME280;66928;52.086;5.240;2023-04-30T11:15:47;102184.0;;;16.34;52.45
50652;BME280;66928;52.086;5.240;2023-04-30T11:17:26;102176.0;;;16.5;51.88
50652;BME280;66928;52.086;5.240;2023-04-30T11:19:09;102173.0;;;16.34;51.97
50652;BME280;66928;52.086;5.240;2023-04-30T11:22:27;102174.0;;;16.07;52.64
50652;BME280;66928;52.086;5.240;2023-04-30T11:24:05;102167.0;;;16.27;52.75
50652;BME280;66928;52.086;5.240;2023-04-30T11:25:43;102167.0;;;16.27;52.45
50652;BME280;66928;52.086;5.240;2023-04-30T11:27:22;102168.0;;;16.22;52.1
50652;BME280;66928;52.086;5.240;2023-04-30T11:30:35;102165.0;;;16.45;51.53
50652;BME280;66928;52.086;5.240;2023-04-30T11:32:12;102166.0;;;16.45;51.85
50652;BME280;66928;52.086;5.240;2023-04-30T11:33:49;102159.0;;;16.59;51.46
50652;BME280;66928;52.086;5.240;2023-04-30T11:35:27;102157.0;;;16.84;50.15
50652;BME280;66928;52.086;5.240;2023-04-30T11:38:43;102152.0;;;16.77;50.81
50652;BME280;66928;52.086;5.240;2023-04-30T11:40:20;102153.0;;;16.75;51.04
50652;BME280;66928;52.086;5.240;2023-04-30T11:41:56;102149.0;;;16.87;50.36
50652;BME280;66928;52.086;5.240;2023-04-30T11:45:11;102151.0;;;16.96;50.34
50652;BME280;66928;52.086;5.240;2023-04-30T11:46:49;102147.0;;;16.84;49.46
50652;BME280;66928;52.086;5.240;2023-04-30T11:48:29;102144.0;;;16.93;48.77
50652;BME280;66928;52.086;5.240;2023-04-30T11:50:07;102142.0;;;16.86;48.33
50652;BME280;66928;52.086;5.240;2023-04-30T11:53:26;102137.0;;;16.52;49.29
50652;BME280;66928;52.086;5.240;2023-04-30T11:55:07;102140.0;;;16.55;49.78
50652;BME280;66928;52.086;5.240;2023-04-30T11:56:48;102133.0;;;16.73;48.8
50652;BME280;66928;52.086;5.240;2023-04-30T12:00:07;102135.0;;;16.77;48.95
50652;BME280;66928;52.086;5.240;2023-04-30T12:01:48;102131.0;;;16.96;48.96
50652;BME280;66928;52.086;5.240;2023-04-30T12:03:24;102128.0;;;16.9;48.31
50652;BME280;66928;52.086;5.240;2023-04-30T12:05:01;102125.0;;;17.04;48.26
50652;BME280;66928;52.086;5.240;2023-04-30T12:08:18;102123.0;;;16.93;48.08
50652;BME280;66928;52.086;5.240;2023-04-30T12:09:55;102124.0;;;16.8;47.66
50652;BME280;66928;52.086;5.240;2023-04-30T12:11:31;102124.0;;;16.88;47.75
50652;BME280;66928;52.086;5.240;2023-04-30T12:13:13;102122.0;;;16.95;48.12
50652;BME280;66928;52.086;5.240;2023-04-30T12:16:27;102115.0;;;17.36;47.25
50652;BME280;66928;52.086;5.240;2023-04-30T12:18:13;102109.0;;;17.57;46.96
50652;BME280;66928;52.086;5.240;2023-04-30T12:19:49;102107.0;;;17.53;46.23
50652;BME280;66928;52.086;5.240;2023-04-30T12:23:02;102107.0;;;17.54;45.7
50652;BME280;66928;52.086;5.240;2023-04-30T12:24:39;102105.0;;;17.75;45.12
50652;BME280;66928;52.086;5.240;2023-04-30T12:26:16;102102.0;;;17.59;45.37
50652;BME280;66928;52.086;5.240;2023-04-30T12:27:53;102099.0;;;17.43;46.74
50652;BME280;66928;52.086;5.240;2023-04-30T12:31:05;102099.0;;;17.59;44.96
50652;BME280;66928;52.086;5.240;2023-04-30T12:32:43;102099.0;;;17.41;44.82
50652;BME280;66928;52.086;5.240;2023-04-30T12:34:20;102089.0;;;17.87;44.44
50652;BME280;66928;52.086;5.240;2023-04-30T12:37:34;102090.0;;;18.02;44.16
50652;BME280;66928;52.086;5.240;2023-04-30T12:39:13;102092.0;;;17.84;44.71
50652;BME280;66928;52.086;5.240;2023-04-30T12:40:50;102096.0;;;17.7;45.44
50652;BME280;66928;52.086;5.240;2023-04-30T12:42:30;102091.0;;;17.73;45.25
50652;BME280;66928;52.086;5.240;2023-04-30T12:46:00;102088.0;;;17.77;45.27
50652;BME280;66928;52.086;5.240;2023-04-30T12:47:38;102095.0;;;17.68;45.05
50652;BME280;66928;52.086;5.240;2023-04-30T12:49:23;102085.0;;;17.78;45.23
50652;BME280;66928;52.086;5.240;2023-04-30T12:51:01;102086.0;;;17.63;45.46
50652;BME280;66928;52.086;5.240;2023-04-30T12:54:23;102080.0;;;17.7;45.49
50652;BME280;66928;52.086;5.240;2023-04-30T12:56:09;102084.0;;;17.52;45.53
50652;BME280;66928;52.086;5.240;2023-04-30T12:58:09;102081.0;;;17.8;44.92
50652;BME280;66928;52.086;5.240;2023-04-30T13:00:02;102080.0;;;17.88;44.45
50652;BME280;66928;52.086;5.240;2023-04-30T13:01:43;102081.0;;;17.56;44.32
50652;BME280;66928;52.086;5.240;2023-04-30T13:03:20;102071.0;;;17.7;43.7
50652;BME280;66928;52.086;5.240;2023-04-30T13:06:33;102075.0;;;17.52;43.39
50652;BME280;66928;52.086;5.240;2023-04-30T13:08:09;102067.0;;;17.75;42.91
50652;BME280;66928;52.086;5.240;2023-04-30T13:09:45;102064.0;;;17.66;43.24
50652;BME280;66928;52.086;5.240;2023-04-30T13:12:58;102061.0;;;17.77;43.13
50652;BME280;66928;52.086;5.240;2023-04-30T13:14:34;102062.0;;;17.62;43.08
50652;BME280;66928;52.086;5.240;2023-04-30T13:16:11;102055.0;;;17.93;43.06
50652;BME280;66928;52.086;5.240;2023-04-30T13:19:23;102050.0;;;18.0;42.61
50652;BME280;66928;52.086;5.240;2023-04-30T13:21:00;102055.0;;;17.84;42.97
50652;BME280;66928;52.086;5.240;2023-04-30T13:22:36;102050.0;;;17.86;43.35
50652;BME280;66928;52.086;5.240;2023-04-30T13:24:12;102058.0;;;17.84;44.01
50652;BME280;66928;52.086;5.240;2023-04-30T13:27:25;102057.0;;;17.96;44.11
50652;BME280;66928;52.086;5.240;2023-04-30T13:29:02;102046.0;;;18.06;44.31
50652;BME280;66928;52.086;5.240;2023-04-30T13:30:39;102049.0;;;18.18;44.24
50652;BME280;66928;52.086;5.240;2023-04-30T13:33:51;102044.0;;;18.09;43.41
50652;BME280;66928;52.086;5.240;2023-04-30T13:35:27;102042.0;;;18.2;43.25
50652;BME280;66928;52.086;5.240;2023-04-30T13:37:04;102041.0;;;18.43;43.09
50652;BME280;66928;52.086;5.240;2023-04-30T13:40:19;102037.0;;;18.63;42.61
50652;BME280;66928;52.086;5.240;2023-04-30T13:41:56;102033.0;;;18.54;42.03
50652;BME280;66928;52.086;5.240;2023-04-30T13:43:32;102030.0;;;18.64;42.36
50652;BME280;66928;52.086;5.240;2023-04-30T13:45:09;102025.0;;;18.75;42.27
50652;BME280;66928;52.086;5.240;2023-04-30T13:48:21;102026.0;;;18.82;41.96
50652;BME280;66928;52.086;5.240;2023-04-30T13:49:58;102023.0;;;18.78;42.08
50652;BME280;66928;52.086;5.240;2023-04-30T13:51:34;102021.0;;;19.06;42.32
50652;BME280;66928;52.086;5.240;2023-04-30T13:54:48;102019.0;;;19.18;41.74
50652;BME280;66928;52.086;5.240;2023-04-30T13:56:24;102020.0;;;19.27;42.23
50652;BME280;66928;52.086;5.240;2023-04-30T13:58:00;102014.0;;;19.21;42.8
50652;BME280;66928;52.086;5.240;2023-04-30T14:01:12;102015.0;;;19.0;42.44
50652;BME280;66928;52.086;5.240;2023-04-30T14:02:50;102013.0;;;18.89;42.62
50652;BME280;66928;52.086;5.240;2023-04-30T14:04:26;102011.0;;;18.88;42.41
50652;BME280;66928;52.086;5.240;2023-04-30T14:06:02;102013.0;;;18.75;42.13
50652;BME280;66928;52.086;5.240;2023-04-30T14:09:16;102010.0;;;18.8;41.6
50652;BME280;66928;52.086;5.240;2023-04-30T14:10:52;102007.0;;;18.89;41.7
50652;BME280;66928;52.086;5.240;2023-04-30T14:12:28;102007.0;;;18.91;42.54
50652;BME280;66928;52.086;5.240;2023-04-30T14:15:40;102007.0;;;18.97;42.8
50652;BME280;66928;52.086;5.240;2023-04-30T14:17:18;102002.0;;;19.0;42.69
50652;BME280;66928;52.086;5.240;2023-04-30T14:18:54;101999.0;;;18.87;42.54
50652;BME280;66928;52.086;5.240;2023-04-30T14:22:06;101996.0;;;18.93;42.11
50652;BME280;66928;52.086;5.240;2023-04-30T14:23:42;101999.0;;;18.84;41.42
50652;BME280;66928;52.086;5.240;2023-04-30T14:25:18;101999.0;;;18.86;41.09
50652;BME280;66928;52.086;5.240;2023-04-30T14:28:30;102002.0;;;18.98;40.69
50652;BME280;66928;52.086;5.240;2023-04-30T14:30:08;102003.0;;;18.62;40.6
50652;BME280;66928;52.086;5.240;2023-04-30T14:31:45;102000.0;;;18.71;40.53
50652;BME280;66928;52.086;5.240;2023-04-30T14:33:21;101998.0;;;18.66;40.71
50652;BME280;66928;52.086;5.240;2023-04-30T14:36:35;101994.0;;;18.75;40.68
50652;BME280;66928;52.086;5.240;2023-04-30T14:38:12;101993.0;;;18.56;40.53
50652;BME280;66928;52.086;5.240;2023-04-30T14:39:49;101989.0;;;18.68;40.76
50652;BME280;66928;52.086;5.240;2023-04-30T14:43:02;101988.0;;;19.02;40.39
50652;BME280;66928;52.086;5.240;2023-04-30T14:44:38;101984.0;;;19.0;41.62
50652;BME280;66928;52.086;5.240;2023-04-30T14:46:15;101987.0;;;18.84;40.21
50652;BME280;66928;52.086;5.240;2023-04-30T14:49:28;101978.0;;;18.87;40.0
50652;BME280;66928;52.086;5.240;2023-04-30T14:51:04;101976.0;;;18.87;40.6
50652;BME280;66928;52.086;5.240;2023-04-30T14:52:41;101973.0;;;19.03;40.39
50652;BME280;66928;52.086;5.240;2023-04-30T14:54:18;101971.0;;;19.06;40.25
50652;BME280;66928;52.086;5.240;2023-04-30T14:57:31;101970.0;;;19.06;40.64
50652;BME280;66928;52.086;5.240;2023-04-30T14:59:07;101968.0;;;19.02;41.25
50652;BME280;66928;52.086;5.240;2023-04-30T15:00:43;101966.0;;;18.93;41.45
50652;BME280;66928;52.086;5.240;2023-04-30T15:03:55;101964.0;;;18.95;41.39
50652;BME280;66928;52.086;5.240;2023-04-30T15:05:31;101962.0;;;19.11;41.16
50652;BME280;66928;52.086;5.240;2023-04-30T15:07:09;101958.0;;;19.18;40.61
50652;BME280;66928;52.086;5.240;2023-04-30T15:10:21;101961.0;;;18.88;40.87
50652;BME280;66928;52.086;5.240;2023-04-30T15:11:58;101955.0;;;18.62;41.62
50652;BME280;66928;52.086;5.240;2023-04-30T15:13:34;101951.0;;;18.72;41.28
50652;BME280;66928;52.086;5.240;2023-04-30T15:15:10;101952.0;;;18.7;41.12
50652;BME280;66928;52.086;5.240;2023-04-30T15:18:24;101951.0;;;18.72;41.02
50652;BME280;66928;52.086;5.240;2023-04-30T15:20:01;101953.0;;;18.61;40.51
50652;BME280;66928;52.086;5.240;2023-04-30T15:21:37;101952.0;;;18.79;40.71
50652;BME280;66928;52.086;5.240;2023-04-30T15:24:50;101951.0;;;18.95;40.92
50652;BME280;66928;52.086;5.240;2023-04-30T15:26:27;101949.0;;;18.95;40.81
50652;BME280;66928;52.086;5.240;2023-04-30T15:28:04;101948.0;;;18.86;40.64
50652;BME280;66928;52.086;5.240;2023-04-30T15:31:16;101943.0;;;18.96;40.46
50652;BME280;66928;52.086;5.240;2023-04-30T15:32:53;101941.0;;;19.05;40.57
50652;BME280;66928;52.086;5.240;2023-04-30T15:34:29;101937.0;;;19.27;40.14
50652;BME280;66928;52.086;5.240;2023-04-30T15:36:05;101933.0;;;19.46;40.15
50652;BME280;66928;52.086;5.240;2023-04-30T15:39:19;101932.0;;;19.61;40.03
50652;BME280;66928;52.086;5.240;2023-04-30T15:40:55;101931.0;;;19.54;39.96
50652;BME280;66928;52.086;5.240;2023-04-30T15:42:32;101927.0;;;19.47;40.04
50652;BME280;66928;52.086;5.240;2023-04-30T15:45:45;101927.0;;;19.43;39.67
50652;BME280;66928;52.086;5.240;2023-04-30T15:47:21;101933.0;;;19.02;39.08
50652;BME280;66928;52.086;5.240;2023-04-30T15:48:58;101931.0;;;18.95;39.5
50652;BME280;66928;52.086;5.240;2023-04-30T15:52:11;101930.0;;;19.0;39.9
50652;BME280;66928;52.086;5.240;2023-04-30T15:53:47;101933.0;;;18.88;39.85
50652;BME280;66928;52.086;5.240;2023-04-30T15:55:24;101930.0;;;19.0;39.75
50652;BME280;66928;52.086;5.240;2023-04-30T15:57:02;101922.0;;;18.86;40.08
50652;BME280;66928;52.086;5.240;2023-04-30T16:00:15;101922.0;;;18.8;40.37
50652;BME280;66928;52.086;5.240;2023-04-30T16:01:52;101920.0;;;18.61;40.92
50652;BME280;66928;52.086;5.240;2023-04-30T16:03:29;101916.0;;;18.52;41.05
50652;BME280;66928;52.086;5.240;2023-04-30T16:06:42;101918.0;;;18.81;41.08
50652;BME280;66928;52.086;5.240;2023-04-30T16:08:19;101912.0;;;18.68;41.09
50652;BME280;66928;52.086;5.240;2023-04-30T16:09:56;101913.0;;;18.72;40.71
50652;BME280;66928;52.086;5.240;2023-04-30T16:11:33;101906.0;;;18.78;41.03
50652;BME280;66928;52.086;5.240;2023-04-30T16:14:46;101905.0;;;18.81;40.87
50652;BME280;66928;52.086;5.240;2023-04-30T16:16:22;101899.0;;;18.86;40.49
50652;BME280;66928;52.086;5.240;2023-04-30T16:17:58;101905.0;;;18.78;40.18
50652;BME280;66928;52.086;5.240;2023-04-30T16:21:12;101901.0;;;18.7;40.44
50652;BME280;66928;52.086;5.240;2023-04-30T16:22:49;101897.0;;;18.88;40.14
50652;BME280;66928;52.086;5.240;2023-04-30T16:24:26;101899.0;;;18.81;40.04
50652;BME280;66928;52.086;5.240;2023-04-30T16:27:38;101892.0;;;18.79;40.08
50652;BME280;66928;52.086;5.240;2023-04-30T16:29:15;101894.0;;;18.73;40.1
50652;BME280;66928;52.086;5.240;2023-04-30T16:30:51;101891.0;;;18.96;39.9
50652;BME280;66928;52.086;5.240;2023-04-30T16:34:04;101893.0;;;18.87;40.11